Time;durP1;ratioP1;P1;durP2;ratioP2;P2;SDS_P1;SDS_P2;PMS_P1;PMS_P2;Temp;Humidity;BMP_temperature;BMP_pressure;BME280_temperature;BME280_humidity;BME280_pressure;Samples;Min_cycle;Max_cycle;Signal;HPM_P1;HPM_P2
2021/04/16 00:00:58;;;;;;;51.30;22.30;;;1.40;99.90;;;;;;5072413;28;20134;-84
2021/04/16 00:03:24;;;;;;;58.25;20.75;;;1.50;99.90;;;;;;5072234;28;20124;-83
2021/04/16 00:05:51;;;;;;;45.92;17.52;;;1.40;99.90;;;;;;5072204;28;20050;-83
2021/04/16 00:08:18;;;;;;;49.67;17.60;;;1.40;99.90;;;;;;5072076;28;20040;-83
2021/04/16 00:10:49;;;;;;;56.40;19.17;;;1.40;99.90;;;;;;5073513;28;20473;-83
2021/04/16 00:13:17;;;;;;;46.50;16.05;;;1.50;99.90;;;;;;5072171;28;20036;-83
2021/04/16 00:15:44;;;;;;;60.83;18.35;;;1.40;99.90;;;;;;5073320;28;20470;-83
2021/04/16 00:18:12;;;;;;;58.00;20.00;;;1.40;99.90;;;;;;5073275;28;20078;-84
2021/04/16 00:20:39;;;;;;;53.35;18.65;;;1.40;99.90;;;;;;5071993;28;20047;-84
2021/04/16 00:23:05;;;;;;;72.93;24.83;;;1.40;99.90;;;;;;5073199;28;20488;-84
2021/04/16 00:25:32;;;;;;;51.35;20.63;;;1.40;99.90;;;;;;5073157;28;20012;-84
2021/04/16 00:27:59;;;;;;;55.17;20.70;;;1.40;99.90;;;;;;5071736;28;20040;-84
2021/04/16 00:30:33;;;;;;;56.95;18.67;;;1.40;99.90;;;;;;5071936;28;20052;-83
2021/04/16 00:32:58;;;;;;;51.13;19.13;;;1.40;99.90;;;;;;5073113;28;20027;-84
2021/04/16 00:35:24;;;;;;;43.95;16.52;;;1.40;99.90;;;;;;5071810;28;20385;-83
2021/04/16 00:37:51;;;;;;;42.05;16.88;;;1.30;99.90;;;;;;5071689;28;20104;-84
2021/04/16 00:40:28;;;;;;;49.70;17.52;;;1.40;99.90;;;;;;5071766;28;20074;-84
2021/04/16 00:42:56;;;;;;;35.00;16.95;;;1.40;99.90;;;;;;5071692;28;20070;-84
2021/04/16 00:45:23;;;;;;;52.85;20.23;;;1.30;99.90;;;;;;5071978;28;20017;-84
2021/04/16 00:47:50;;;;;;;48.65;20.98;;;1.30;99.90;;;;;;5072797;28;20055;-84
2021/04/16 00:50:26;;;;;;;71.32;28.92;;;1.30;99.90;;;;;;5072906;28;20202;-84
2021/04/16 00:52:52;;;;;;;39.90;17.88;;;1.30;99.90;;;;;;5072863;28;20111;-83
2021/04/16 00:55:18;;;;;;;43.65;18.08;;;1.40;99.90;;;;;;5072391;28;20025;-84
2021/04/16 00:57:44;;;;;;;47.63;16.52;;;1.40;99.90;;;;;;5071321;28;20028;-83
2021/04/16 01:00:12;;;;;;;39.30;18.67;;;1.30;99.90;;;;;;5072787;28;20044;-82
2021/04/16 01:02:38;;;;;;;44.72;17.50;;;1.30;99.90;;;;;;5071352;28;20012;-85
2021/04/16 01:05:07;;;;;;;46.15;20.08;;;1.30;99.90;;;;;;5071501;28;20158;-84
2021/04/16 01:07:33;;;;;;;39.65;15.20;;;1.30;99.90;;;;;;5071214;28;20113;-85
2021/04/16 01:09:58;;;;;;;38.40;15.18;;;1.20;99.90;;;;;;5071432;28;20021;-84
2021/04/16 01:12:24;;;;;;;36.45;16.75;;;1.20;99.90;;;;;;5072619;28;20025;-84
2021/04/16 01:14:57;;;;;;;34.83;14.63;;;1.20;99.90;;;;;;5072683;28;20024;-85
2021/04/16 01:17:23;;;;;;;34.50;14.98;;;1.10;99.90;;;;;;5071296;28;20025;-85
2021/04/16 01:20:00;;;;;;;31.38;14.57;;;1.10;99.90;;;;;;5071357;28;20108;-86
2021/04/16 01:22:42;;;;;;;28.85;14.02;;;1.10;99.90;;;;;;5071309;28;20023;-86
2021/04/16 01:25:11;;;;;;;31.80;14.77;;;1.10;99.90;;;;;;5071393;28;20082;-85
2021/04/16 01:27:36;;;;;;;35.42;14.35;;;1.10;99.90;;;;;;5071032;28;20044;-86
2021/04/16 01:30:11;;;;;;;28.30;12.23;;;1.00;99.90;;;;;;5072521;28;20024;-85
2021/04/16 01:32:37;;;;;;;32.13;12.93;;;1.10;99.90;;;;;;5054568;28;20025;-86
2021/04/16 01:35:05;;;;;;;26.77;12.27;;;1.00;99.90;;;;;;5069278;28;20017;-85
2021/04/16 01:37:31;;;;;;;29.98;13.43;;;0.90;99.90;;;;;;5050728;28;20177;-84
2021/04/16 01:39:57;;;;;;;27.38;11.93;;;0.90;99.90;;;;;;5051147;28;20025;-83
2021/04/16 01:42:23;;;;;;;25.42;12.63;;;1.00;99.90;;;;;;5052350;28;20378;-83
2021/04/16 01:44:49;;;;;;;22.33;11.48;;;0.90;99.90;;;;;;5050989;28;20078;-84
2021/04/16 01:47:16;;;;;;;30.05;13.57;;;1.00;99.90;;;;;;5050941;28;20127;-84
2021/04/16 01:49:44;;;;;;;30.35;13.20;;;1.00;99.90;;;;;;5052356;28;20021;-84
2021/04/16 01:52:29;;;;;;;31.58;13.52;;;1.00;99.90;;;;;;5052265;28;20029;-83
2021/04/16 01:54:56;;;;;;;28.85;14.60;;;1.00;99.90;;;;;;5050618;28;20374;-84
2021/04/16 01:57:31;;;;;;;31.75;13.98;;;1.00;99.90;;;;;;5051382;28;20051;-84
2021/04/16 01:59:58;;;;;;;30.40;12.95;;;1.00;99.90;;;;;;5052141;28;20092;-83
2021/04/16 02:02:28;;;;;;;28.35;12.68;;;0.90;99.90;;;;;;5050664;28;20013;-84
2021/04/16 02:04:53;;;;;;;26.58;12.32;;;0.90;99.90;;;;;;5062770;28;20516;-84
2021/04/16 02:07:19;;;;;;;25.77;13.93;;;0.90;99.90;;;;;;5057875;28;20076;-84
2021/04/16 02:09:45;;;;;;;24.83;12.07;;;0.90;99.90;;;;;;5073775;28;20032;-83
2021/04/16 02:12:14;;;;;;;32.13;12.93;;;0.80;99.90;;;;;;5059374;28;20029;-84
2021/04/16 02:14:39;;;;;;;30.60;12.35;;;0.90;99.90;;;;;;5054346;28;20025;-84
2021/04/16 02:17:09;;;;;;;29.10;13.32;;;0.90;99.90;;;;;;5054262;28;20028;-85
2021/04/16 02:19:35;;;;;;;28.10;11.25;;;0.90;99.90;;;;;;5054252;28;20493;-84
2021/04/16 02:22:01;;;;;;;19.08;10.73;;;0.80;99.90;;;;;;5054206;28;20021;-83
2021/04/16 02:24:27;;;;;;;23.25;11.18;;;0.80;99.90;;;;;;5054222;28;20025;-82
2021/04/16 02:26:53;;;;;;;27.45;11.93;;;0.90;99.90;;;;;;5055372;28;20482;-83
2021/04/16 02:29:21;;;;;;;33.55;13.73;;;0.90;99.90;;;;;;5054804;28;20037;-83
2021/04/16 02:31:47;;;;;;;43.67;18.80;;;0.90;99.90;;;;;;5053923;28;20464;-85
2021/04/16 02:34:23;;;;;;;50.15;23.40;;;0.80;99.90;;;;;;5053957;28;20108;-83
2021/04/16 02:36:50;;;;;;;26.50;13.13;;;0.80;99.90;;;;;;5055044;28;20025;-85
2021/04/16 02:39:17;;;;;;;24.83;10.52;;;0.70;99.90;;;;;;5061032;28;20099;-84
2021/04/16 02:41:43;;;;;;;24.67;11.23;;;0.70;99.90;;;;;;5074636;28;20016;-85
2021/04/16 02:44:09;;;;;;;23.45;11.45;;;0.70;99.90;;;;;;5072171;28;20016;-83
2021/04/16 02:46:35;;;;;;;22.98;12.43;;;0.70;99.90;;;;;;5073693;28;20493;-84
2021/04/16 02:49:01;;;;;;;23.63;11.13;;;0.70;99.90;;;;;;5073674;28;20032;-84
2021/04/16 02:51:28;;;;;;;25.65;11.38;;;0.70;99.90;;;;;;5074940;28;20059;-84
2021/04/16 02:53:54;;;;;;;27.00;12.43;;;0.70;99.90;;;;;;5073788;28;20021;-84
2021/04/16 02:56:20;;;;;;;25.00;9.77;;;0.70;99.90;;;;;;5073697;28;20085;-84
2021/04/16 02:58:46;;;;;;;18.88;9.10;;;0.70;99.90;;;;;;5073846;28;20435;-84
2021/04/16 03:01:11;;;;;;;21.80;10.90;;;0.70;99.90;;;;;;5073586;28;20017;-82
2021/04/16 03:03:37;;;;;;;14.35;7.93;;;0.70;99.90;;;;;;5073422;28;20055;-83
2021/04/16 03:06:04;;;;;;;18.60;9.90;;;0.70;99.90;;;;;;5074767;28;20017;-84
2021/04/16 03:08:30;;;;;;;17.80;8.27;;;0.70;99.90;;;;;;5073351;28;20059;-83
2021/04/16 03:10:56;;;;;;;19.90;9.82;;;0.70;99.90;;;;;;5074695;28;20021;-84
2021/04/16 03:13:22;;;;;;;20.40;9.32;;;0.70;99.90;;;;;;5072750;28;20012;-85
2021/04/16 03:15:48;;;;;;;23.65;9.93;;;0.70;99.90;;;;;;5073518;28;20086;-84
2021/04/16 03:18:14;;;;;;;21.77;10.30;;;0.70;99.90;;;;;;5074224;28;20027;-84
2021/04/16 03:20:40;;;;;;;65.78;26.90;;;0.70;99.90;;;;;;5074458;28;20024;-84
2021/04/16 03:23:06;;;;;;;93.93;34.55;;;0.80;99.90;;;;;;5074328;28;20029;-84
2021/04/16 03:25:32;;;;;;;59.35;22.05;;;0.70;99.90;;;;;;5073155;28;20385;-84
2021/04/16 03:27:58;;;;;;;175.95;62.85;;;0.80;99.90;;;;;;5074216;28;20496;-83
2021/04/16 03:30:25;;;;;;;124.80;45.92;;;0.70;99.90;;;;;;5074246;28;20021;-83
2021/04/16 03:32:51;;;;;;;35.60;16.42;;;0.80;99.90;;;;;;5072910;28;20484;-83
2021/04/16 03:35:18;;;;;;;180.93;59.13;;;0.70;99.90;;;;;;5074218;28;20030;-83
2021/04/16 03:37:44;;;;;;;375.13;119.20;;;0.70;99.90;;;;;;5074065;28;20020;-84
2021/04/16 03:40:12;;;;;;;222.10;70.15;;;0.70;99.90;;;;;;5072828;28;20066;-84
2021/04/16 03:42:38;;;;;;;107.20;39.15;;;0.70;99.90;;;;;;5072591;28;20031;-85
2021/04/16 03:45:05;;;;;;;266.58;85.13;;;0.70;99.90;;;;;;5072738;28;20017;-84
2021/04/16 03:47:31;;;;;;;140.65;49.55;;;0.70;99.90;;;;;;5072501;28;20033;-84
2021/04/16 03:49:57;;;;;;;42.65;17.40;;;0.70;99.90;;;;;;5072627;28;20012;-83
2021/04/16 03:52:27;;;;;;;234.18;76.88;;;0.70;99.90;;;;;;5073679;28;20045;-83
2021/04/16 03:54:54;;;;;;;206.60;68.88;;;0.70;99.90;;;;;;5072274;28;20032;-82
2021/04/16 03:57:20;;;;;;;157.75;46.50;;;0.70;99.90;;;;;;5071580;28;20419;-83
2021/04/16 03:59:46;;;;;;;162.65;46.88;;;0.70;99.90;;;;;;5072353;28;20477;-83
2021/04/16 04:02:12;;;;;;;168.57;55.30;;;0.70;99.90;;;;;;5073564;28;20023;-83
2021/04/16 04:04:38;;;;;;;155.55;46.33;;;0.70;99.90;;;;;;5072246;28;20027;-84
2021/04/16 04:07:04;;;;;;;73.38;27.13;;;0.70;99.90;;;;;;5072144;28;20025;-84
2021/04/16 04:09:30;;;;;;;272.20;97.47;;;0.70;99.90;;;;;;5072148;28;20030;-84
2021/04/16 04:11:56;;;;;;;104.88;43.03;;;0.70;99.90;;;;;;5055591;28;20390;-83
2021/04/16 04:14:22;;;;;;;86.28;35.30;;;0.60;99.90;;;;;;5057747;28;20048;-84
2021/04/16 04:16:49;;;;;;;77.15;31.38;;;0.60;99.90;;;;;;5069885;28;20021;-84
2021/04/16 04:19:15;;;;;;;47.38;20.13;;;0.60;99.90;;;;;;5071986;28;20020;-82
2021/04/16 04:21:41;;;;;;;85.53;31.80;;;0.60;99.90;;;;;;5062685;28;20082;-83
2021/04/16 04:24:07;;;;;;;53.65;20.38;;;0.70;99.90;;;;;;5051963;28;20119;-84
2021/04/16 04:26:33;;;;;;;52.50;21.38;;;0.60;99.90;;;;;;5052935;28;20421;-85
2021/04/16 04:28:58;;;;;;;59.65;22.77;;;0.60;99.90;;;;;;5051315;28;20032;-85
2021/04/16 04:31:24;;;;;;;64.03;25.85;;;0.60;99.90;;;;;;5053017;28;20021;-86
2021/04/16 04:33:49;;;;;;;79.53;36.83;;;0.60;99.90;;;;;;5052848;28;20414;-86
2021/04/16 04:36:15;;;;;;;47.53;19.52;;;0.60;99.90;;;;;;5055357;28;20028;-84
2021/04/16 04:38:41;;;;;;;35.13;15.25;;;0.60;99.90;;;;;;5071692;28;20028;-83
2021/04/16 04:41:06;;;;;;;32.42;15.50;;;0.60;99.90;;;;;;5069496;28;20431;-84
2021/04/16 04:43:32;;;;;;;25.02;11.95;;;0.60;99.90;;;;;;5067498;28;20028;-84
2021/04/16 04:45:57;;;;;;;42.28;18.45;;;0.60;99.90;;;;;;5069597;28;20044;-84
2021/04/16 04:48:23;;;;;;;32.17;14.60;;;0.60;99.90;;;;;;5070741;28;20040;-84
2021/04/16 04:50:48;;;;;;;25.58;12.70;;;0.60;99.90;;;;;;5070079;28;20044;-85
2021/04/16 04:53:14;;;;;;;24.83;12.90;;;0.60;99.90;;;;;;5069765;28;20031;-84
2021/04/16 04:55:40;;;;;;;34.67;15.73;;;0.60;99.90;;;;;;5069048;28;20021;-85
2021/04/16 04:58:05;;;;;;;142.43;53.67;;;0.60;99.90;;;;;;5072300;28;20471;-85
2021/04/16 05:00:32;;;;;;;69.25;29.88;;;0.60;99.90;;;;;;5071284;28;20478;-83
2021/04/16 05:02:58;;;;;;;30.13;15.65;;;0.60;99.90;;;;;;5070856;28;20024;-83
2021/04/16 05:05:24;;;;;;;37.53;16.42;;;0.60;99.90;;;;;;5071277;28;20020;-84
2021/04/16 05:07:50;;;;;;;28.23;14.30;;;0.60;99.90;;;;;;5071179;28;20123;-83
2021/04/16 05:10:16;;;;;;;33.72;16.80;;;0.60;99.90;;;;;;5070882;28;20044;-83
2021/04/16 05:12:42;;;;;;;44.20;19.55;;;0.60;99.90;;;;;;5072448;28;20013;-83
2021/04/16 05:15:09;;;;;;;28.10;14.82;;;0.60;99.90;;;;;;5071172;28;20028;-83
2021/04/16 05:17:35;;;;;;;30.27;15.77;;;0.60;99.90;;;;;;5071107;28;20017;-84
2021/04/16 05:20:01;;;;;;;72.40;30.48;;;0.60;99.90;;;;;;5071265;28;20052;-84
2021/04/16 05:22:27;;;;;;;95.10;34.88;;;0.60;99.90;;;;;;5071034;28;20079;-84
2021/04/16 05:24:52;;;;;;;45.65;19.77;;;0.60;99.90;;;;;;5072329;28;20020;-83
2021/04/16 05:27:22;;;;;;;70.20;32.38;;;0.60;99.90;;;;;;5070551;28;20013;-83
2021/04/16 05:29:48;;;;;;;60.13;25.20;;;0.60;99.90;;;;;;5071039;28;20044;-83
2021/04/16 05:32:14;;;;;;;39.97;16.85;;;0.60;99.90;;;;;;5072292;28;20048;-84
2021/04/16 05:34:45;;;;;;;43.45;20.92;;;0.60;99.90;;;;;;5070993;28;20029;-84
2021/04/16 05:37:10;;;;;;;49.00;20.15;;;0.70;99.90;;;;;;5072294;28;20052;-84
2021/04/16 05:39:36;;;;;;;32.72;14.90;;;0.70;99.90;;;;;;5072139;28;20071;-82
2021/04/16 05:42:02;;;;;;;27.65;14.65;;;0.70;99.90;;;;;;5073579;28;20032;-83
2021/04/16 05:44:27;;;;;;;38.30;18.13;;;0.60;99.90;;;;;;5074793;28;20032;-84
2021/04/16 05:46:53;;;;;;;38.03;19.67;;;0.60;99.90;;;;;;5074713;28;20417;-84
2021/04/16 05:49:19;;;;;;;35.53;17.77;;;0.60;99.90;;;;;;5074672;28;20037;-84
2021/04/16 05:51:44;;;;;;;31.95;16.25;;;0.60;99.90;;;;;;5074577;28;20058;-84
2021/04/16 05:54:10;;;;;;;31.17;14.98;;;0.60;99.90;;;;;;5074609;28;20035;-83
2021/04/16 05:56:36;;;;;;;26.42;13.43;;;0.60;99.90;;;;;;5074239;28;20565;-83
2021/04/16 05:59:02;;;;;;;42.97;22.48;;;0.60;99.90;;;;;;5076278;28;20037;-84
2021/04/16 06:01:28;;;;;;;31.73;16.20;;;0.60;99.90;;;;;;5075697;28;20020;-84
2021/04/16 06:03:54;;;;;;;25.00;13.30;;;0.70;99.90;;;;;;5075752;28;20133;-84
2021/04/16 06:06:19;;;;;;;29.90;15.63;;;0.70;99.90;;;;;;5075626;28;20116;-85
2021/04/16 06:08:46;;;;;;;31.10;15.38;;;0.70;99.90;;;;;;5074221;28;20120;-83
2021/04/16 06:11:12;;;;;;;26.38;13.52;;;0.70;99.90;;;;;;5074073;28;20051;-83
2021/04/16 06:13:38;;;;;;;25.98;11.95;;;0.60;99.90;;;;;;5074119;28;20025;-83
2021/04/16 06:16:05;;;;;;;41.03;21.35;;;0.70;99.90;;;;;;5074285;28;20024;-83
2021/04/16 06:18:31;;;;;;;31.88;17.13;;;0.70;99.90;;;;;;5073527;28;20135;-83
2021/04/16 06:20:57;;;;;;;36.90;16.25;;;0.70;99.90;;;;;;5075288;28;20103;-83
2021/04/16 06:23:23;;;;;;;39.90;17.88;;;0.70;99.90;;;;;;5073816;28;20031;-83
2021/04/16 06:25:48;;;;;;;29.38;13.23;;;0.80;99.90;;;;;;5073566;28;20028;-82
2021/04/16 06:28:15;;;;;;;27.77;14.20;;;0.70;99.90;;;;;;5073749;28;20067;-83
2021/04/16 06:30:43;;;;;;;28.50;14.32;;;0.80;99.90;;;;;;5073886;28;20040;-83
2021/04/16 06:33:25;;;;;;;31.98;16.15;;;0.80;99.90;;;;;;5073059;28;20029;-83
2021/04/16 06:36:03;;;;;;;31.10;13.40;;;0.80;99.90;;;;;;5072549;28;20070;-80
2021/04/16 06:38:36;;;;;;;23.05;14.52;;;0.80;99.90;;;;;;5067596;28;20123;-84
2021/04/16 06:41:03;;;;;;;36.47;16.88;;;0.90;99.90;;;;;;5062968;28;20025;-83
2021/04/16 06:43:41;;;;;;;27.13;13.50;;;0.90;99.90;;;;;;5059426;28;20041;-85
2021/04/16 06:46:14;;;;;;;30.58;14.30;;;0.90;99.90;;;;;;5055234;28;20025;-84
2021/04/16 06:48:40;;;;;;;;;;;0.90;99.90;;;;;;5055165;28;20033;-84
2021/04/16 06:51:06;;;;;;;28.27;13.95;;;1.00;99.90;;;;;;5053530;28;20035;-86
2021/04/16 06:53:54;;;;;;;22.63;11.50;;;1.00;99.90;;;;;;5052603;28;20028;-84
2021/04/16 06:56:28;;;;;;;29.38;16.45;;;1.00;99.90;;;;;;5061438;28;20457;-84
2021/04/16 06:59:19;;;;;;;24.30;13.65;;;1.00;99.90;;;;;;5061122;28;20043;-85
2021/04/16 07:02:01;;;;;;;32.13;19.27;;;1.10;99.90;;;;;;5069091;28;20035;-84
2021/04/16 07:04:31;;;;;;;25.58;15.35;;;1.10;99.90;;;;;;5066011;28;20021;-85
2021/04/16 07:07:01;;;;;;;33.33;18.10;;;1.10;99.90;;;;;;5063792;28;20442;-83
2021/04/16 07:09:39;;;;;;;39.00;19.80;;;1.20;99.90;;;;;;5061950;28;20442;-84
2021/04/16 07:12:14;;;;;;;42.72;21.13;;;1.20;99.90;;;;;;5063841;28;20039;-85
2021/04/16 07:14:41;;;;;;;51.58;19.75;;;1.20;99.90;;;;;;5070445;28;20024;-84
2021/04/16 07:17:11;;;;;;;41.47;20.80;;;1.20;99.90;;;;;;5072912;28;20025;-87
2021/04/16 07:19:37;;;;;;;71.63;34.63;;;1.20;99.90;;;;;;5072800;28;20025;-84
2021/04/16 07:22:08;;;;;;;141.35;61.03;;;1.20;99.90;;;;;;5074115;28;20390;-85
2021/04/16 07:24:34;;;;;;;86.35;38.45;;;1.20;99.90;;;;;;5072099;28;20039;-86
2021/04/16 07:27:15;;;;;;;123.25;53.25;;;1.20;99.90;;;;;;5071169;28;20032;-86
2021/04/16 07:29:52;;;;;;;122.57;57.35;;;1.30;99.90;;;;;;5071368;28;20071;-85
2021/04/16 07:32:29;;;;;;;140.82;61.75;;;1.20;99.90;;;;;;5072663;28;20037;-86
2021/04/16 07:34:58;;;;;;;203.07;80.97;;;1.20;99.90;;;;;;5072219;28;20041;-84
2021/04/16 07:37:28;;;;;;;161.23;70.28;;;1.20;99.90;;;;;;5062133;28;20150;-86
2021/04/16 07:40:07;;;;;;;149.73;65.75;;;1.30;99.90;;;;;;5060633;28;20382;-84
2021/04/16 07:42:48;;;;;;;133.25;63.40;;;1.30;99.90;;;;;;5061384;28;20051;-84
2021/04/16 07:45:25;;;;;;;96.70;45.80;;;1.30;99.90;;;;;;5072231;28;20078;-84
2021/04/16 07:48:14;;;;;;;105.78;48.30;;;1.30;99.90;;;;;;5072896;28;20351;-83
2021/04/16 07:50:43;;;;;;;73.97;34.67;;;1.30;99.90;;;;;;5073664;28;20099;-84
2021/04/16 07:53:34;;;;;;;74.55;34.97;;;1.40;99.90;;;;;;5063309;28;20052;-83
2021/04/16 07:56:07;;;;;;;66.85;32.72;;;1.40;99.90;;;;;;5067459;28;20087;-85
2021/04/16 07:58:34;;;;;;;;;;;1.40;99.90;;;;;;5070052;28;20032;-84
2021/04/16 08:01:15;;;;;;;51.33;24.77;;;1.40;99.90;;;;;;5064731;28;19904;-84
2021/04/16 08:04:02;;;;;;;46.15;21.88;;;1.40;99.90;;;;;;5051455;28;20014;-87
2021/04/16 08:06:41;;;;;;;66.95;28.50;;;1.50;99.90;;;;;;5051879;28;20047;-86
2021/04/16 08:09:28;;;;;;;36.63;18.48;;;1.50;99.90;;;;;;5052967;28;20047;-86
2021/04/16 08:11:59;;;;;;;53.10;28.00;;;1.50;99.90;;;;;;5053319;28;20486;-91
2021/04/16 08:14:30;;;;;;;45.25;23.63;;;1.60;99.90;;;;;;5069757;28;20020;-86
2021/04/16 08:17:05;;;;;;;41.75;21.20;;;1.50;99.90;;;;;;5071938;28;20437;-87
2021/04/16 08:19:33;;;;;;;42.22;20.20;;;1.50;99.90;;;;;;5073106;28;20048;-88
2021/04/16 08:22:16;;;;;;;57.97;30.85;;;1.50;99.90;;;;;;5072917;28;20077;-87
2021/04/16 08:24:54;;;;;;;50.75;30.00;;;1.60;99.90;;;;;;5070844;28;20245;-86
2021/04/16 08:27:43;;;;;;;42.08;22.80;;;1.60;99.90;;;;;;5071427;28;20103;-86
2021/04/16 08:30:23;;;;;;;49.03;24.42;;;1.60;99.90;;;;;;5071626;28;20013;-88
2021/04/16 08:33:01;;;;;;;41.28;19.05;;;1.50;99.90;;;;;;5063409;28;20036;-88
2021/04/16 08:36:01;;;;;;;38.50;18.75;;;1.60;99.90;;;;;;5054905;28;20024;-86
2021/04/16 08:38:30;;;;;;;41.97;22.30;;;1.60;99.90;;;;;;5058217;28;20449;-87
2021/04/16 08:41:00;;;;;;;34.15;18.52;;;1.70;99.90;;;;;;5051902;28;20029;-86
2021/04/16 08:43:48;;;;;;;27.55;16.00;;;1.70;99.90;;;;;;5072320;28;20027;-86
2021/04/16 08:46:54;;;;;;;27.52;14.60;;;1.70;99.90;;;;;;5067273;28;20032;-87
2021/04/16 08:49:21;;;;;;;31.90;17.77;;;1.70;99.90;;;;;;5009938;28;20038;-87
2021/04/16 08:52:15;;;;;;;35.25;18.70;;;1.80;99.90;;;;;;5043918;28;20041;-89
2021/04/16 08:54:43;;;;;;;33.33;19.67;;;1.80;99.90;;;;;;5053663;28;20044;-88
2021/04/16 08:57:30;;;;;;;38.40;19.83;;;1.80;99.90;;;;;;5059539;28;20054;-87
2021/04/16 09:00:15;;;;;;;41.85;21.00;;;1.80;99.90;;;;;;5061952;28;20043;-85
2021/04/16 09:02:44;;;;;;;45.05;20.08;;;1.80;99.90;;;;;;5058717;28;20067;-87
2021/04/16 09:05:15;;;;;;;83.57;30.42;;;1.90;99.90;;;;;;5051632;28;20481;-86
2021/04/16 09:07:57;;;;;;;120.68;42.90;;;1.90;99.90;;;;;;5061858;28;20486;-88
2021/04/16 09:10:23;;;;;;;73.13;26.33;;;1.90;99.90;;;;;;5059915;28;20025;-88
2021/04/16 09:12:54;;;;;;;64.40;23.27;;;2.00;99.90;;;;;;5063804;28;20017;-91
2021/04/16 09:15:20;;;;;;;49.30;17.42;;;1.90;99.90;;;;;;5055985;28;20025;-87
2021/04/16 09:17:58;;;;;;;142.25;41.72;;;1.90;99.90;;;;;;5060942;28;20500;-88
2021/04/16 09:20:25;;;;;;;85.03;29.45;;;1.90;99.90;;;;;;5066611;28;20050;-89
2021/04/16 09:22:53;;;;;;;93.18;35.38;;;2.00;99.90;;;;;;5074257;28;20516;-89
2021/04/16 09:25:45;;;;;;;39.47;17.55;;;2.00;99.90;;;;;;5076214;28;20028;-89
2021/04/16 09:28:23;;;;;;;44.13;18.58;;;2.10;99.90;;;;;;5075520;28;20094;-90
2021/04/16 09:30:55;;;;;;;62.15;23.85;;;2.00;99.90;;;;;;5067042;28;20521;-85
2021/04/16 09:33:27;;;;;;;45.20;21.55;;;2.10;99.90;;;;;;5068545;28;20027;-89
2021/04/16 09:35:58;;;;;;;48.20;22.77;;;2.10;99.90;;;;;;5071350;28;20028;-89
2021/04/16 09:38:24;;;;;;;72.25;29.02;;;2.20;99.90;;;;;;5074683;28;20033;-89
2021/04/16 09:41:12;;;;;;;39.30;20.67;;;2.10;99.90;;;;;;5073509;28;20036;-85
2021/04/16 09:43:39;;;;;;;41.30;20.08;;;2.20;99.90;;;;;;5072473;28;20064;-87
2021/04/16 09:46:40;;;;;;;33.63;16.52;;;2.30;99.90;;;;;;5075770;28;20474;-83
2021/04/16 09:49:09;;;;;;;28.60;13.80;;;2.30;99.90;;;;;;5074935;28;20593;-83
2021/04/16 09:51:45;;;;;;;28.00;15.35;;;2.30;99.90;;;;;;5074738;28;20127;-84
2021/04/16 09:54:10;;;;;;;37.47;18.52;;;2.30;99.90;;;;;;5074790;28;20029;-87
2021/04/16 09:56:57;;;;;;;32.22;14.40;;;2.30;99.90;;;;;;5070170;28;20047;-85
2021/04/16 09:59:41;;;;;;;27.85;16.13;;;2.30;99.90;;;;;;5066289;28;20474;-86
2021/04/16 10:02:12;;;;;;;27.65;14.82;;;2.40;99.90;;;;;;5074847;28;20040;-87
2021/04/16 10:04:50;;;;;;;23.65;14.52;;;2.50;99.90;;;;;;5074615;28;20021;-87
2021/04/16 10:07:19;;;;;;;30.30;15.52;;;2.50;99.90;;;;;;5074522;28;20470;-87
2021/04/16 10:09:45;;;;;;;22.73;12.48;;;2.60;99.90;;;;;;5074383;28;20024;-85
2021/04/16 10:12:30;;;;;;;29.67;16.48;;;2.60;99.90;;;;;;5074181;28;20032;-86
2021/04/16 10:14:56;;;;;;;39.47;18.25;;;2.70;99.90;;;;;;5063369;28;20036;-85
2021/04/16 10:17:24;;;;;;;28.25;15.50;;;2.70;99.90;;;;;;5061617;28;20013;-86
2021/04/16 10:20:10;;;;;;;24.17;13.23;;;2.70;99.90;;;;;;5054658;28;20029;-85
2021/04/16 10:22:38;;;;;;;24.02;13.93;;;2.70;99.90;;;;;;5055511;28;20031;-86
2021/04/16 12:39:40;;;;;;;154.90;69.63;;;3.70;99.90;;;;;;5061733;28;20055;-85
2021/04/16 12:42:08;;;;;;;175.85;86.30;;;3.60;99.90;;;;;;5060458;28;20706;-85
2021/04/16 12:44:47;;;;;;;135.68;56.75;;;3.60;99.90;;;;;;5060618;28;20146;-84
2021/04/16 12:47:19;;;;;;;159.52;63.80;;;3.60;99.90;;;;;;5060762;28;20099;-85
2021/04/16 12:49:44;;;;;;;134.40;58.93;;;3.60;99.90;;;;;;5060237;28;20507;-85
2021/04/16 12:52:13;;;;;;;55.13;25.20;;;3.60;99.90;;;;;;5059441;28;20021;-85
2021/04/16 12:54:42;;;;;;;109.38;44.65;;;3.60;99.90;;;;;;5061741;28;20024;-85
2021/04/16 12:57:14;;;;;;;86.50;37.75;;;3.60;99.90;;;;;;5056059;28;20009;-85
2021/04/16 12:59:40;;;;;;;100.25;47.13;;;3.60;99.90;;;;;;5058694;28;20443;-85
2021/04/16 13:02:14;;;;;;;99.15;47.53;;;3.60;99.90;;;;;;5059917;28;20160;-85
2021/04/16 13:04:42;;;;;;;35.60;19.45;;;3.50;99.90;;;;;;5059665;28;20044;-85
2021/04/16 13:07:07;;;;;;;58.88;28.70;;;3.50;99.90;;;;;;5059457;28;20046;-84
2021/04/16 13:09:33;;;;;;;89.25;42.22;;;3.50;99.90;;;;;;5060180;28;20037;-85
2021/04/16 13:11:59;;;;;;;91.30;43.03;;;3.50;99.90;;;;;;5068880;28;20039;-85
2021/04/16 13:14:24;;;;;;;82.55;40.42;;;3.60;99.90;;;;;;5069765;28;20020;-85
2021/04/16 13:16:50;;;;;;;36.33;21.85;;;3.60;99.90;;;;;;5071147;28;20107;-87
2021/04/16 13:19:26;;;;;;;71.07;33.85;;;3.50;99.90;;;;;;5069661;28;20039;-86
2021/04/16 13:22:16;;;;;;;35.50;19.20;;;3.60;99.90;;;;;;5064504;28;20017;-87
2021/04/16 13:24:43;;;;;;;59.33;28.95;;;3.60;99.90;;;;;;5085427;28;20021;-87
2021/04/16 13:27:12;;;;;;;98.82;43.65;;;3.60;99.90;;;;;;5067962;28;20439;-87
2021/04/16 13:29:38;;;;;;;80.72;40.03;;;3.60;99.90;;;;;;5067476;28;20436;-86
2021/04/16 13:32:06;;;;;;;63.40;29.90;;;3.60;99.90;;;;;;5070413;28;20032;-86
2021/04/16 13:34:33;;;;;;;98.90;45.53;;;3.60;99.90;;;;;;5068537;28;20033;-84
2021/04/16 13:36:59;;;;;;;88.25;38.17;;;3.60;99.90;;;;;;5069962;28;20021;-84
2021/04/16 13:39:25;;;;;;;69.00;32.47;;;3.60;99.90;;;;;;5068889;28;20466;-86
2021/04/16 13:41:51;;;;;;;45.40;22.05;;;3.60;99.90;;;;;;5069628;28;20028;-88
2021/04/16 13:44:17;;;;;;;65.20;32.97;;;3.60;99.90;;;;;;5069197;28;20105;-86
2021/04/16 13:46:43;;;;;;;55.13;26.02;;;3.60;99.90;;;;;;5070978;28;20111;-85
2021/04/16 13:49:14;;;;;;;58.28;26.67;;;3.60;99.90;;;;;;5070892;28;20467;-87
2021/04/16 13:51:40;;;;;;;61.08;31.73;;;3.60;99.90;;;;;;5071537;28;20029;-88
2021/04/16 13:54:07;;;;;;;62.10;31.90;;;3.70;99.90;;;;;;5070770;28;20025;-84
2021/04/16 13:56:34;;;;;;;50.30;25.13;;;3.60;99.90;;;;;;5072238;28;20021;-83
2021/04/16 13:58:59;;;;;;;29.65;17.30;;;3.60;99.90;;;;;;5072789;28;20116;-83
2021/04/16 14:01:25;;;;;;;27.25;14.73;;;3.60;99.90;;;;;;5057294;28;20103;-84
2021/04/16 14:03:56;;;;;;;50.03;26.00;;;3.50;99.90;;;;;;5056129;28;20171;-85
2021/04/16 14:06:26;;;;;;;84.90;42.30;;;3.60;99.90;;;;;;5054439;28;20051;-84
2021/04/16 14:09:00;;;;;;;62.75;29.75;;;3.60;99.90;;;;;;5055663;28;20532;-84
2021/04/16 14:11:28;;;;;;;30.25;17.52;;;3.60;99.90;;;;;;5054884;28;20024;-83
2021/04/16 14:13:53;;;;;;;56.22;29.77;;;3.50;99.90;;;;;;5053648;28;20455;-84
2021/04/16 14:16:46;;;;;;;38.10;21.27;;;3.50;99.90;;;;;;5054410;28;20124;-83
2021/04/16 14:19:29;;;;;;;40.83;23.77;;;3.50;99.90;;;;;;5052395;28;20033;-85
2021/04/16 14:21:57;;;;;;;38.55;22.15;;;3.50;99.90;;;;;;5053863;28;20024;-86
2021/04/16 14:24:23;;;;;;;38.53;21.90;;;3.50;99.90;;;;;;5053988;28;20021;-84
2021/04/16 14:26:51;;;;;;;59.47;32.85;;;3.50;99.90;;;;;;5055209;28;20491;-85
2021/04/16 14:29:17;;;;;;;70.78;31.90;;;3.50;99.90;;;;;;5054434;28;20040;-83
2021/04/16 14:31:45;;;;;;;37.75;21.52;;;3.60;99.90;;;;;;5055062;28;20082;-83
2021/04/16 14:34:20;;;;;;;37.85;20.10;;;3.60;99.90;;;;;;5054001;28;20436;-84
2021/04/16 14:36:46;;;;;;;29.08;15.32;;;3.50;99.90;;;;;;5071200;28;20031;-84
2021/04/16 14:39:13;;;;;;;25.45;12.73;;;3.50;99.90;;;;;;5075166;28;20020;-84
2021/04/16 14:41:40;;;;;;;38.30;19.73;;;3.40;99.90;;;;;;5073686;28;20020;-85
2021/04/16 14:44:14;;;;;;;55.90;25.10;;;3.50;99.90;;;;;;5074471;28;20078;-86
2021/04/16 14:46:45;;;;;;;34.58;16.88;;;3.40;99.90;;;;;;5073791;28;20116;-89
2021/04/16 14:49:13;;;;;;;27.30;14.57;;;3.40;99.90;;;;;;5073863;28;20072;-87
2021/04/16 14:51:38;;;;;;;65.93;30.48;;;3.40;99.90;;;;;;5075049;28;20436;-86
2021/04/16 14:54:12;;;;;;;37.13;18.13;;;3.40;99.90;;;;;;5064515;28;20033;-87
2021/04/16 14:56:38;;;;;;;23.58;14.73;;;3.40;99.90;;;;;;5060622;28;20078;-86
2021/04/16 14:59:26;;;;;;;30.90;17.95;;;3.40;99.90;;;;;;5068933;28;20036;-85
2021/04/16 15:01:52;;;;;;;22.98;13.90;;;3.40;99.90;;;;;;5072135;28;20021;-89
2021/04/16 15:04:19;;;;;;;28.65;14.50;;;3.30;99.90;;;;;;5072053;28;20024;-86